createdAt,value
2022-09-16T00:01:36.158Z,100279.69
2022-09-16T00:04:05.118Z,100278.31
2022-09-16T00:06:34.536Z,100270.19
2022-09-16T00:09:03.574Z,100285.34
2022-09-16T00:11:35.126Z,100287.28
2022-09-16T00:14:06.126Z,100281.22
2022-09-16T00:16:35.148Z,100282.19
2022-09-16T00:19:04.399Z,100288.53
2022-09-16T00:21:33.834Z,100293.88
2022-09-16T00:24:03.088Z,100286.34
2022-09-16T00:26:32.128Z,100279.31
2022-09-16T00:29:01.246Z,100283.44
2022-09-16T00:31:31.619Z,100284.09
2022-09-16T00:34:00.716Z,100280.66
2022-09-16T00:36:30.304Z,100277.50
2022-09-16T00:38:59.504Z,100282.28
2022-09-16T00:41:32.861Z,100279.53
2022-09-16T00:44:04.389Z,100287.09
2022-09-16T00:46:40.179Z,100298.00
2022-09-16T00:49:14.473Z,100303.28
2022-09-16T00:51:45.465Z,100300.38
2022-09-16T00:54:14.659Z,100294.16
2022-09-16T00:56:48.335Z,100289.75
2022-09-16T00:59:20.669Z,100291.44
2022-09-16T01:01:52.106Z,100294.44
2022-09-16T01:04:25.872Z,100302.16
2022-09-16T01:06:55.193Z,100302.72
2022-09-16T01:09:26.695Z,100303.94
2022-09-16T01:11:55.752Z,100299.00
2022-09-16T01:14:45.317Z,100300.91
2022-09-16T01:17:23.510Z,100302.69
2022-09-16T01:20:26.273Z,100316.50
2022-09-16T01:23:21.058Z,100311.94
2022-09-16T01:26:06.545Z,100312.94
2022-09-16T01:29:02.992Z,100297.75
2022-09-16T01:31:41.192Z,100299.41
2022-09-16T01:34:22.139Z,100296.53
2022-09-16T01:36:59.049Z,100296.78
2022-09-16T01:39:35.727Z,100296.25
2022-09-16T01:42:17.799Z,100297.63
2022-09-16T01:44:53.387Z,100295.81
2022-09-16T01:47:31.894Z,100296.81
2022-09-16T01:50:08.704Z,100285.19
2022-09-16T01:52:46.370Z,100282.19
2022-09-16T01:55:22.761Z,100272.81
2022-09-16T01:57:57.339Z,100272.97
2022-09-16T02:00:26.526Z,100280.94
2022-09-16T02:03:02.094Z,100279.28
2022-09-16T02:05:35.437Z,100285.50
2022-09-16T02:08:09.407Z,100282.31
2022-09-16T02:10:42.693Z,100277.78
2022-09-16T02:13:18.431Z,100268.28
2022-09-16T02:15:50.736Z,100276.25
2022-09-16T02:18:25.796Z,100269.22
2022-09-16T02:20:57.941Z,100271.28
2022-09-16T02:23:33.308Z,100270.06
2022-09-16T02:26:06.082Z,100275.72
2022-09-16T02:28:40.345Z,100294.44
2022-09-16T02:31:10.782Z,100287.41
2022-09-16T02:33:50.321Z,100284.13
2022-09-16T02:36:22.661Z,100266.63
2022-09-16T02:38:57.894Z,100260.84
2022-09-16T02:41:27.167Z,100255.72
2022-09-16T02:43:56.363Z,100252.56
2022-09-16T02:46:33.441Z,100259.16
2022-09-16T02:49:11.889Z,100261.38
2022-09-16T02:51:52.507Z,100254.63
2022-09-16T02:54:27.251Z,100258.19
2022-09-16T02:56:58.038Z,100251.06
2022-09-16T02:59:27.334Z,100247.72
2022-09-16T03:01:57.278Z,100250.22
2022-09-16T03:04:27.613Z,100248.44
2022-09-16T03:06:56.590Z,100261.53
2022-09-16T03:09:26.017Z,100257.91
2022-09-16T03:12:20.556Z,100281.06
2022-09-16T03:15:05.952Z,100289.91
2022-09-16T03:17:50.318Z,100279.16
2022-09-16T03:20:27.783Z,100257.22
2022-09-16T03:23:04.503Z,100238.22
2022-09-16T03:25:47.648Z,100240.56
2022-09-16T03:28:21.416Z,100236.13
2022-09-16T03:30:57.787Z,100242.63
2022-09-16T03:33:33.522Z,100239.59
2022-09-16T03:36:06.608Z,100233.81
2022-09-16T03:38:38.067Z,100230.66
2022-09-16T03:41:09.293Z,100230.66
2022-09-16T03:43:38.287Z,100221.97
2022-09-16T03:46:16.671Z,100236.16
2022-09-16T03:48:45.648Z,100228.84
2022-09-16T03:51:16.635Z,100231.59
2022-09-16T03:53:46.050Z,100228.84
2022-09-16T03:56:15.230Z,100231.31
2022-09-16T03:58:44.314Z,100238.09
2022-09-16T04:01:14.190Z,100239.06
2022-09-16T04:03:43.596Z,100245.13
2022-09-16T04:06:12.528Z,100250.63
2022-09-16T04:08:44.393Z,100242.09
2022-09-16T04:11:13.475Z,100241.81
2022-09-16T04:13:42.455Z,100232.44
2022-09-16T04:16:11.401Z,100232.44
2022-09-16T04:18:40.439Z,100233.28
2022-09-16T04:21:10.687Z,100229.00
2022-09-16T04:23:39.607Z,100231.31
2022-09-16T04:26:11.325Z,100237.25
2022-09-16T04:28:40.243Z,100228.97
2022-09-16T04:31:12.858Z,100228.72
2022-09-16T04:33:42.700Z,100230.91
2022-09-16T04:36:13.519Z,100228.56
2022-09-16T04:38:44.223Z,100218.09
2022-09-16T04:41:17.703Z,100223.06
2022-09-16T04:43:46.803Z,100227.47
2022-09-16T04:46:16.035Z,100220.59
2022-09-16T04:48:47.645Z,100220.84
2022-09-16T04:51:16.974Z,100223.22
2022-09-16T04:53:46.595Z,100222.50
2022-09-16T04:56:20.029Z,100224.03
2022-09-16T04:58:50.709Z,100226.75
2022-09-16T05:01:21.722Z,100218.78
2022-09-16T05:03:53.171Z,100230.75
2022-09-16T05:06:24.029Z,100228.69
2022-09-16T05:08:54.672Z,100225.81
2022-09-16T05:11:26.823Z,100199.78
2022-09-16T05:13:56.632Z,100210.25
2022-09-16T05:16:25.655Z,100211.38
2022-09-16T05:18:57.325Z,100201.97
2022-09-16T05:21:28.645Z,100206.25
2022-09-16T05:24:02.288Z,100214.81
2022-09-16T05:26:35.356Z,100197.16
2022-09-16T05:29:08.705Z,100199.66
2022-09-16T05:31:40.212Z,100199.38
2022-09-16T05:34:14.577Z,100199.38
2022-09-16T05:36:47.465Z,100193.03
2022-09-16T05:39:24.538Z,100194.69
2022-09-16T05:41:59.020Z,100187.13
2022-09-16T05:44:30.703Z,100195.09
2022-09-16T05:47:01.040Z,100193.84
2022-09-16T05:49:31.442Z,100200.34
2022-09-16T05:52:01.604Z,100196.72
2022-09-16T05:54:31.509Z,100209.28
2022-09-16T05:57:07.227Z,100204.88
2022-09-16T05:59:38.055Z,100205.00
2022-09-16T06:02:07.509Z,100200.31
2022-09-16T06:04:36.928Z,100198.41
2022-09-16T06:07:07.249Z,100197.16
2022-09-16T06:09:36.824Z,100197.44
2022-09-16T06:12:07.545Z,100193.53
2022-09-16T06:14:36.791Z,100200.72
2022-09-16T06:17:06.212Z,100204.69
2022-09-16T06:19:35.195Z,100194.44
2022-09-16T06:22:04.708Z,100191.69
2022-09-16T06:24:33.632Z,100198.06
2022-09-16T06:27:02.753Z,100190.72
2022-09-16T06:29:33.109Z,100182.03
2022-09-16T06:32:02.317Z,100185.91
2022-09-16T06:34:31.622Z,100178.59
2022-09-16T06:37:00.548Z,100175.13
2022-09-16T06:39:29.469Z,100194.31
2022-09-16T06:41:58.392Z,100177.06
2022-09-16T06:44:43.465Z,100187.38
2022-09-16T06:47:12.538Z,100182.41
2022-09-16T06:49:41.895Z,100186.53
2022-09-16T06:52:11.847Z,100181.09
2022-09-16T06:54:40.792Z,100186.41
2022-09-16T06:57:12.284Z,100177.94
2022-09-16T06:59:42.974Z,100169.72
2022-09-16T07:02:12.749Z,100165.34
2022-09-16T07:04:41.779Z,100169.72
2022-09-16T07:07:11.103Z,100170.28
2022-09-16T07:09:40.317Z,100169.22
2022-09-16T07:12:09.679Z,100178.38
2022-09-16T07:14:38.701Z,100168.78
2022-09-16T07:17:09.407Z,100174.75
2022-09-16T07:19:38.662Z,100169.97
2022-09-16T07:22:07.598Z,100169.91
2022-09-16T07:24:36.573Z,100172.34
2022-09-16T07:27:47.543Z,100169.97
2022-09-16T07:30:16.798Z,100180.84
2022-09-16T07:32:47.079Z,100169.34
2022-09-16T07:35:16.329Z,100177.47
2022-09-16T07:37:45.430Z,100173.22
2022-09-16T07:40:14.694Z,100166.91
2022-09-16T07:42:44.086Z,100170.78
2022-09-16T07:45:13.169Z,100170.91
2022-09-16T07:47:42.190Z,100175.06
2022-09-16T07:50:12.721Z,100155.38
2022-09-16T07:52:41.724Z,100158.81
2022-09-16T07:55:12.230Z,100165.47
2022-09-16T07:57:41.459Z,100168.00
2022-09-16T08:00:11.947Z,100168.66
2022-09-16T08:02:40.998Z,100162.44
2022-09-16T08:05:13.231Z,100179.16
2022-09-16T08:07:42.159Z,100167.06
2022-09-16T08:10:11.429Z,100176.47
2022-09-16T08:12:40.414Z,100155.69
2022-09-16T08:15:10.879Z,100166.63
2022-09-16T08:17:39.945Z,100155.47
2022-09-16T08:20:09.337Z,100151.91
2022-09-16T08:22:39.702Z,100157.75
2022-09-16T08:25:09.400Z,100166.47
2022-09-16T08:27:38.859Z,100163.56
2022-09-16T08:30:09.248Z,100172.19
2022-09-16T08:32:38.660Z,100177.06
2022-09-16T08:35:19.168Z,100177.22
2022-09-16T08:38:01.036Z,100178.31
2022-09-16T08:40:38.434Z,100180.47
2022-09-16T08:43:15.045Z,100179.06
2022-09-16T08:45:54.190Z,100178.97
2022-09-16T08:48:34.736Z,100176.84
2022-09-16T08:51:06.099Z,100179.47
2022-09-16T08:53:43.042Z,100173.78
2022-09-16T08:56:15.580Z,100202.63
2022-09-16T08:58:48.827Z,100188.00
2022-09-16T09:01:24.368Z,100191.22
2022-09-16T09:03:54.148Z,100185.56
2022-09-16T09:06:37.446Z,100188.97
2022-09-16T09:09:22.507Z,100183.00
2022-09-16T09:11:58.823Z,100184.25
2022-09-16T09:14:39.315Z,100181.81
2022-09-16T09:17:14.216Z,100167.81
2022-09-16T09:19:58.234Z,100173.25
2022-09-16T09:22:39.780Z,100171.25
2022-09-16T09:25:22.963Z,100157.25
2022-09-16T09:28:04.464Z,100163.28
2022-09-16T09:30:35.603Z,100153.31
2022-09-16T09:33:44.273Z,100148.03
2022-09-16T09:36:34.667Z,100141.09
2022-09-16T09:39:30.010Z,100132.13
2022-09-16T09:42:08.783Z,100123.25
2022-09-16T09:44:53.905Z,100128.81
2022-09-16T09:47:28.556Z,100103.19
2022-09-16T09:49:59.838Z,100108.59
2022-09-16T09:52:38.556Z,100098.28
2022-09-16T09:55:19.511Z,100112.03
2022-09-16T09:58:02.456Z,100123.50
2022-09-16T10:00:31.448Z,100098.91
2022-09-16T10:03:07.752Z,100106.50
2022-09-16T10:05:36.825Z,100108.38
2022-09-16T10:08:16.406Z,100114.59
2022-09-16T10:10:50.599Z,100109.47
2022-09-16T10:13:21.716Z,100105.59
2022-09-16T10:15:55.642Z,100095.88
2022-09-16T10:18:29.653Z,100107.19
2022-09-16T10:21:05.596Z,100100.78
2022-09-16T10:23:36.255Z,100097.56
2022-09-16T10:26:21.672Z,100106.06
2022-09-16T10:29:00.638Z,100100.00
2022-09-16T10:31:35.851Z,100099.09
2022-09-16T10:34:06.625Z,100107.59
2022-09-16T10:36:36.752Z,100102.50
2022-09-16T10:39:06.888Z,100101.25
2022-09-16T10:41:42.513Z,100095.69
2022-09-16T10:44:21.579Z,100091.03
2022-09-16T10:46:57.229Z,100089.56
2022-09-16T10:49:35.023Z,100099.91
2022-09-16T10:52:16.571Z,100066.41
2022-09-16T10:54:46.227Z,100079.22
2022-09-16T10:57:28.737Z,100085.88
2022-09-16T11:00:02.801Z,100062.97
2022-09-16T11:02:53.646Z,100071.81
2022-09-16T11:05:31.293Z,100067.59
2022-09-16T11:08:10.930Z,100069.44
2022-09-16T11:10:49.762Z,100084.41
2022-09-16T11:13:39.459Z,100090.16
2022-09-16T11:16:23.860Z,100077.75
2022-09-16T11:19:02.640Z,100061.28
2022-09-16T11:22:00.787Z,100054.09
2022-09-16T11:24:56.658Z,100065.16
2022-09-16T11:27:39.113Z,100065.91
2022-09-16T11:30:13.511Z,100061.69
2022-09-16T11:33:03.550Z,100091.91
2022-09-16T11:35:59.683Z,100088.22
2022-09-16T11:38:42.439Z,100078.81
2022-09-16T11:41:21.574Z,100066.91
2022-09-16T11:44:04.591Z,100071.19
2022-09-16T11:46:42.662Z,100058.19
2022-09-16T11:49:43.774Z,100063.75
2022-09-16T11:52:32.931Z,100060.50
2022-09-16T11:55:18.349Z,100051.81
2022-09-16T11:57:53.479Z,100044.28
2022-09-16T12:00:22.512Z,100035.34
2022-09-16T12:02:58.680Z,100035.28
2022-09-16T12:05:34.541Z,100036.88
2022-09-16T12:08:11.734Z,100030.03
2022-09-16T12:10:45.765Z,100030.53
2022-09-16T12:13:18.237Z,100028.59
2022-09-16T12:15:51.814Z,100038.44
2022-09-16T12:18:25.871Z,100050.78
2022-09-16T12:21:06.647Z,100069.66
2022-09-16T12:23:41.892Z,100078.34
2022-09-16T12:26:14.282Z,100061.53
2022-09-16T12:28:52.291Z,100058.25
2022-09-16T12:31:28.103Z,100051.16
2022-09-16T12:34:02.719Z,100046.47
2022-09-16T12:36:36.308Z,100026.47
2022-09-16T12:39:05.475Z,100038.34
2022-09-16T12:41:57.547Z,100033.78
2022-09-16T12:44:48.489Z,100030.06
2022-09-16T12:47:45.439Z,100028.41
2022-09-16T12:50:44.130Z,100012.25
2022-09-16T12:53:49.400Z,99993.97
2022-09-16T12:56:33.421Z,100014.25
2022-09-16T12:59:20.825Z,100009.38
2022-09-16T13:01:59.017Z,100012.72
2022-09-16T13:04:33.483Z,100019.78
2022-09-16T13:07:02.980Z,100025.97
2022-09-16T13:09:38.362Z,100002.50
2022-09-16T13:12:39.301Z,100012.03
2022-09-16T13:15:24.198Z,100015.03
2022-09-16T13:17:53.718Z,100006.66
2022-09-16T13:20:28.484Z,100003.00
2022-09-16T13:23:08.731Z,100007.13
2022-09-16T13:25:49.315Z,100003.84
2022-09-16T13:28:28.334Z,100000.03
2022-09-16T13:30:57.451Z,99997.25
2022-09-16T13:33:29.627Z,99999.38
2022-09-16T13:36:32.789Z,99990.66
2022-09-16T13:39:03.843Z,100002.13
2022-09-16T13:41:39.842Z,99982.19
2022-09-16T13:44:28.305Z,99992.78
2022-09-16T13:47:08.378Z,99995.03
2022-09-16T13:49:42.613Z,100000.16
2022-09-16T13:52:13.419Z,100008.38
2022-09-16T13:55:08.980Z,99963.00
2022-09-16T13:58:00.879Z,99978.56
2022-09-16T14:00:37.633Z,99972.06
2022-09-16T14:03:32.528Z,99957.91
2022-09-16T14:06:25.778Z,99976.03
2022-09-16T14:09:03.569Z,99948.72
2022-09-16T14:11:39.677Z,99943.66
2022-09-16T14:14:36.175Z,99949.41
2022-09-16T14:17:14.413Z,99954.06
2022-09-16T14:19:46.858Z,99956.09
2022-09-16T14:22:18.414Z,99937.88
2022-09-16T14:24:53.010Z,99933.16
2022-09-16T14:27:34.031Z,99928.38
2022-09-16T14:30:07.488Z,99931.28
2022-09-16T14:32:38.558Z,99919.59
2022-09-16T14:35:13.451Z,99915.06
2022-09-16T14:37:46.234Z,99909.28
2022-09-16T14:40:18.879Z,99899.63
2022-09-16T14:42:52.467Z,99897.09
2022-09-16T14:45:23.372Z,99885.47
2022-09-16T14:47:55.836Z,99890.97
2022-09-16T14:50:28.266Z,99893.03
2022-09-16T14:52:59.269Z,99872.88
2022-09-16T14:55:31.042Z,99865.41
2022-09-16T14:58:00.911Z,99842.31
2022-09-16T15:00:39.094Z,99828.25
2022-09-16T15:03:15.600Z,99826.66
2022-09-16T15:05:47.406Z,99825.22
2022-09-16T15:08:20.604Z,99823.47
2022-09-16T15:10:52.921Z,99816.94
2022-09-16T15:13:25.423Z,99813.66
2022-09-16T15:16:00.225Z,99804.13
2022-09-16T15:18:32.707Z,99798.88
2022-09-16T15:21:08.453Z,99784.81
2022-09-16T15:23:39.745Z,99783.38
2022-09-16T15:26:17.843Z,99801.28
2022-09-16T15:28:58.858Z,99768.78
2022-09-16T15:31:35.236Z,99754.56
2022-09-16T15:34:20.828Z,99761.44
2022-09-16T15:36:51.863Z,99800.38
2022-09-16T15:39:26.332Z,99784.66
2022-09-16T15:42:12.043Z,99780.91
2022-09-16T15:44:47.882Z,99782.44
2022-09-16T15:47:21.509Z,99786.56
2022-09-16T15:49:54.113Z,99794.78
2022-09-16T15:52:23.276Z,99797.25
2022-09-16T15:54:57.376Z,99797.25
2022-09-16T15:57:34.243Z,99792.84
2022-09-16T16:00:11.474Z,99800.59
2022-09-16T16:02:51.606Z,99806.19
2022-09-16T16:05:23.259Z,99812.09
2022-09-16T16:07:54.380Z,99813.75
2022-09-16T16:10:28.792Z,99812.44
2022-09-16T16:12:59.601Z,99810.78
2022-09-16T16:15:31.756Z,99816.09
2022-09-16T16:18:04.400Z,99810.16
2022-09-16T16:20:34.550Z,99811.81
2022-09-16T16:23:04.032Z,99810.50
2022-09-16T16:25:33.292Z,99808.56
2022-09-16T16:28:02.747Z,99814.47
2022-09-16T16:30:34.612Z,99819.38
2022-09-16T16:33:08.526Z,99834.03
2022-09-16T16:35:37.625Z,99837.78
2022-09-16T16:38:08.479Z,99830.56
2022-09-16T16:40:37.871Z,99842.06
2022-09-16T16:43:09.483Z,99843.53
2022-09-16T16:45:41.493Z,99845.88
2022-09-16T16:48:11.890Z,99840.09
2022-09-16T16:50:41.155Z,99840.75
2022-09-16T16:53:10.337Z,99839.94
2022-09-16T16:55:39.930Z,99843.19
2022-09-16T16:58:11.570Z,99852.09
2022-09-16T17:00:40.649Z,99850.78
2022-09-16T17:03:11.293Z,99858.47
2022-09-16T17:05:40.331Z,99859.44
2022-09-16T17:08:09.786Z,99869.00
2022-09-16T17:10:42.910Z,99872.09
2022-09-16T17:13:12.381Z,99872.09
2022-09-16T17:15:42.089Z,99876.53
2022-09-16T17:18:12.488Z,99880.66
2022-09-16T17:20:41.958Z,99886.44
2022-09-16T17:23:11.143Z,99898.75
2022-09-16T17:25:40.527Z,99900.56
2022-09-16T17:28:10.162Z,99904.16
2022-09-16T17:30:43.501Z,99914.06
2022-09-16T17:33:14.228Z,99916.34
2022-09-16T17:35:43.888Z,99918.16
2022-09-16T17:38:13.138Z,99919.97
2022-09-16T17:40:42.392Z,99920.63
2022-09-16T17:43:11.464Z,99931.50
2022-09-16T17:45:40.415Z,99931.16
2022-09-16T17:48:09.680Z,99941.53
2022-09-16T17:50:43.654Z,99955.47
2022-09-16T17:53:13.131Z,99956.78
2022-09-16T17:55:42.288Z,99964.81
2022-09-16T17:58:13.589Z,99956.59
2022-09-16T18:00:43.507Z,99959.22
2022-09-16T18:03:16.519Z,99967.59
2022-09-16T18:05:47.086Z,99965.47
2022-09-16T18:08:16.363Z,99966.28
2022-09-16T18:10:45.350Z,99969.22
2022-09-16T18:13:14.644Z,99972.50
2022-09-16T18:15:43.958Z,99976.09
2022-09-16T18:18:14.936Z,99976.91
2022-09-16T18:20:44.171Z,99975.75
2022-09-16T18:23:15.868Z,99974.41
2022-09-16T18:25:45.046Z,99971.78
2022-09-16T18:28:16.293Z,99983.44
2022-09-16T18:30:45.426Z,99982.97
2022-09-16T18:33:14.719Z,99987.75
2022-09-16T18:35:43.902Z,99993.16
2022-09-16T18:38:14.478Z,99988.88
2022-09-16T18:40:43.623Z,99997.59
2022-09-16T18:43:12.808Z,99992.84
2022-09-16T18:45:41.843Z,100007.78
2022-09-16T18:48:11.613Z,99996.97
2022-09-16T18:50:40.668Z,100004.53
2022-09-16T18:53:09.789Z,100014.22
2022-09-16T18:55:40.030Z,100011.44
2022-09-16T18:58:09.332Z,100011.94
2022-09-16T19:00:38.264Z,100012.09
2022-09-16T19:03:07.492Z,100024.41
2022-09-16T19:05:37.065Z,100027.34
2022-09-16T19:08:06.747Z,100031.47
2022-09-16T19:10:36.313Z,100032.63
2022-09-16T19:13:08.763Z,100039.66
2022-09-16T19:15:41.334Z,100042.16
2022-09-16T19:18:12.470Z,100036.38
2022-09-16T19:20:46.469Z,100052.44
2022-09-16T19:23:16.405Z,100056.56
2022-09-16T19:25:45.536Z,100050.94
2022-09-16T19:28:20.214Z,100054.72
2022-09-16T19:30:49.867Z,100063.72
2022-09-16T19:33:18.824Z,100066.63
2022-09-16T19:35:48.410Z,100063.50
2022-09-16T19:38:17.751Z,100067.25
2022-09-16T19:40:46.715Z,100071.84
2022-09-16T19:43:17.704Z,100076.75
2022-09-16T19:45:48.235Z,100066.53
2022-09-16T19:48:17.511Z,100078.84
2022-09-16T19:50:53.284Z,100083.75
2022-09-16T19:53:22.444Z,100078.13
2022-09-16T19:55:56.833Z,100079.09
2022-09-16T19:58:28.029Z,100084.16
2022-09-16T20:01:02.319Z,100092.16
2022-09-16T20:03:33.676Z,100086.91
2022-09-16T20:06:04.676Z,100083.78
2022-09-16T20:08:40.112Z,100092.94
2022-09-16T20:11:11.073Z,100088.00
2022-09-16T20:13:41.900Z,100091.25
2022-09-16T20:16:11.582Z,100091.06
2022-09-16T20:18:40.674Z,100095.50
2022-09-16T20:21:13.413Z,100094.16
2022-09-16T20:23:45.180Z,100091.31
2022-09-16T20:26:19.566Z,100100.41
2022-09-16T20:28:54.501Z,100097.03
2022-09-16T20:31:25.724Z,100098.69
2022-09-16T20:33:57.686Z,100102.72
2022-09-16T20:36:30.622Z,100097.63
2022-09-16T20:39:01.279Z,100103.72
2022-09-16T20:41:33.239Z,100108.41
2022-09-16T20:44:05.196Z,100110.91
2022-09-16T20:46:36.401Z,100116.59
2022-09-16T20:49:10.386Z,100112.31
2022-09-16T20:51:39.864Z,100113.31
2022-09-16T20:54:11.295Z,100112.22
2022-09-16T20:56:42.811Z,100127.00
2022-09-16T20:59:16.363Z,100127.00
2022-09-16T21:01:48.300Z,100132.16
2022-09-16T21:04:20.490Z,100123.72
2022-09-16T21:06:50.416Z,100131.34
2022-09-16T21:09:19.583Z,100134.25
2022-09-16T21:11:51.479Z,100135.22
2022-09-16T21:14:22.648Z,100137.72
2022-09-16T21:16:52.598Z,100150.19
2022-09-16T21:19:24.155Z,100150.44
2022-09-16T21:21:56.657Z,100152.63
2022-09-16T21:24:25.666Z,100159.00
2022-09-16T21:26:55.342Z,100166.56
2022-09-16T21:29:25.785Z,100164.38
2022-09-16T21:31:56.442Z,100161.09
2022-09-16T21:34:25.706Z,100165.91
2022-09-16T21:36:58.722Z,100161.19
2022-09-16T21:39:30.431Z,100174.22
2022-09-16T21:42:00.074Z,100182.53
2022-09-16T21:44:30.396Z,100178.25
2022-09-16T21:46:59.384Z,100193.88
2022-09-16T21:49:30.420Z,100184.75
2022-09-16T21:52:00.605Z,100188.94
2022-09-16T21:54:31.155Z,100188.63
2022-09-16T21:57:00.702Z,100190.06
2022-09-16T21:59:34.094Z,100188.41
2022-09-16T22:02:03.985Z,100186.75
2022-09-16T22:04:33.349Z,100183.59
2022-09-16T22:07:02.415Z,100187.03
2022-09-16T22:09:31.589Z,100188.28
2022-09-16T22:12:01.499Z,100191.84
2022-09-16T22:14:30.882Z,100196.41
2022-09-16T22:17:01.236Z,100195.19
2022-09-16T22:19:30.260Z,100190.63
2022-09-16T22:21:59.201Z,100191.75
2022-09-16T22:24:28.216Z,100189.78
2022-09-16T22:26:57.125Z,100190.69
2022-09-16T22:29:26.205Z,100192.72
2022-09-16T22:31:55.233Z,100200.03
2022-09-16T22:34:25.565Z,100192.72
2022-09-16T22:36:54.491Z,100191.94
2022-09-16T22:39:23.533Z,100188.63
2022-09-16T22:41:52.549Z,100194.78
2022-09-16T22:44:21.470Z,100197.41
2022-09-16T22:46:50.485Z,100203.88
2022-09-16T22:49:19.466Z,100196.59
2022-09-16T22:51:49.750Z,100203.59
2022-09-16T22:54:18.728Z,100205.09
2022-09-16T22:56:47.670Z,100201.59
2022-09-16T22:59:19.467Z,100201.44
2022-09-16T23:01:49.022Z,100203.09
2022-09-16T23:04:18.353Z,100212.47
2022-09-16T23:06:48.763Z,100197.28
2022-09-16T23:09:18.095Z,100203.34
2022-09-16T23:11:47.219Z,100201.81
2022-09-16T23:14:20.736Z,100206.75
2022-09-16T23:16:50.090Z,100199.09
2022-09-16T23:19:19.201Z,100194.69
2022-09-16T23:21:50.548Z,100195.91
2022-09-16T23:24:21.205Z,100196.88
2022-09-16T23:26:50.296Z,100199.91
2022-09-16T23:29:19.667Z,100198.38
2022-09-16T23:31:48.747Z,100197.28
2022-09-16T23:34:20.173Z,100197.09
2022-09-16T23:36:51.420Z,100193.22
2022-09-16T23:39:20.561Z,100203.44
2022-09-16T23:41:51.309Z,100203.03
2022-09-16T23:44:22.311Z,100201.25
2022-09-16T23:46:51.371Z,100205.22
2022-09-16T23:49:20.395Z,100202.44
2022-09-16T23:51:50.742Z,100202.97
2022-09-16T23:54:20.135Z,100199.38
2022-09-16T23:56:49.145Z,100201.34
2022-09-16T23:59:18.391Z,100203.78
